Time;durP1;ratioP1;P1;durP2;ratioP2;P2;SDS_P1;SDS_P2;PMS_P1;PMS_P2;Temp;Humidity;BMP_temperature;BMP_pressure;BME280_temperature;BME280_humidity;BME280_pressure;Samples;Min_cycle;Max_cycle;Signal;HPM_P1;HPM_P2
2022/11/24 00:02:14;;;;;;;14.10;3.75;;;7.40;99.90;;;;;;5092804;28;20039;-79
2022/11/24 00:04:40;;;;;;;8.70;3.05;;;7.30;99.90;;;;;;5086652;28;20393;-78
2022/11/24 00:07:06;;;;;;;10.15;2.80;;;7.30;99.90;;;;;;5073274;28;20048;-79
2022/11/24 00:09:32;;;;;;;9.43;2.85;;;7.30;99.90;;;;;;5085968;28;20035;-79
2022/11/24 00:12:00;;;;;;;8.82;3.47;;;7.30;99.90;;;;;;5085042;28;20040;-78
2022/11/24 00:14:26;;;;;;;11.60;3.42;;;7.20;99.90;;;;;;5076406;28;20466;-79
2022/11/24 00:16:52;;;;;;;9.55;2.47;;;7.20;99.90;;;;;;5074261;28;20028;-79
2022/11/24 00:19:18;;;;;;;12.93;4.10;;;7.30;99.90;;;;;;5074454;28;20024;-78
2022/11/24 00:21:44;;;;;;;7.35;2.75;;;7.30;99.90;;;;;;5089344;28;20044;-79
2022/11/24 00:24:12;;;;;;;13.82;2.97;;;7.30;99.90;;;;;;5094109;28;20039;-79
2022/11/24 00:26:38;;;;;;;16.05;2.95;;;7.30;99.90;;;;;;5092130;28;20035;-78
2022/11/24 00:29:06;;;;;;;5.78;2.03;;;7.30;99.90;;;;;;5077449;28;20393;-79
2022/11/24 00:31:35;;;;;;;14.07;2.42;;;7.30;99.90;;;;;;5073904;28;20040;-78
2022/11/24 00:34:04;;;;;;;7.15;2.28;;;7.30;99.90;;;;;;5073064;28;20028;-78
2022/11/24 00:36:32;;;;;;;7.20;2.38;;;7.30;99.90;;;;;;5072849;28;20032;-78
2022/11/24 00:39:02;;;;;;;10.27;3.30;;;7.10;99.90;;;;;;5073979;28;20024;-78
2022/11/24 00:41:29;;;;;;;13.98;3.88;;;7.00;99.90;;;;;;5072291;28;20029;-77
2022/11/24 00:43:57;;;;;;;9.82;3.13;;;7.00;99.90;;;;;;5072875;28;20044;-78
2022/11/24 00:46:25;;;;;;;10.73;3.72;;;6.90;99.90;;;;;;5072017;28;20033;-78
2022/11/24 00:48:52;;;;;;;12.95;3.85;;;6.80;99.90;;;;;;5072497;28;20502;-78
2022/11/24 00:51:20;;;;;;;6.95;2.30;;;6.70;99.90;;;;;;5072950;28;20378;-78
2022/11/24 00:53:46;;;;;;;9.07;2.65;;;6.60;99.90;;;;;;5070528;28;20456;-78
2022/11/24 00:56:13;;;;;;;13.57;3.13;;;6.60;99.90;;;;;;5073153;28;20032;-78
2022/11/24 00:58:39;;;;;;;10.77;3.75;;;6.60;99.90;;;;;;5090052;28;20384;-78
2022/11/24 01:01:18;;;;;;;8.13;2.35;;;6.50;99.90;;;;;;5071718;28;20056;-77
2022/11/24 01:03:45;;;;;;;11.15;2.65;;;6.50;99.90;;;;;;5071393;28;20052;-78
2022/11/24 01:06:17;;;;;;;10.40;2.60;;;6.40;99.90;;;;;;5070341;28;20060;-78
2022/11/24 01:08:44;;;;;;;13.43;3.92;;;6.40;99.90;;;;;;5071190;28;20059;-78
2022/11/24 01:11:17;;;;;;;10.93;2.85;;;6.40;99.90;;;;;;5080974;28;20044;-77
2022/11/24 01:13:45;;;;;;;12.57;3.35;;;6.30;99.90;;;;;;5089616;28;20036;-78
2022/11/24 01:16:19;;;;;;;8.25;3.15;;;6.30;99.90;;;;;;5089467;28;20060;-78
2022/11/24 01:18:46;;;;;;;9.32;2.97;;;6.30;99.90;;;;;;5079033;28;20501;-78
2022/11/24 01:21:13;;;;;;;13.73;3.33;;;6.20;99.90;;;;;;5071710;28;20063;-77
2022/11/24 01:23:39;;;;;;;13.27;3.50;;;6.20;99.90;;;;;;5070926;28;20051;-78
2022/11/24 01:26:07;;;;;;;16.08;3.88;;;6.20;99.90;;;;;;5070370;28;20040;-78
2022/11/24 01:28:34;;;;;;;8.77;3.65;;;6.30;99.90;;;;;;5071220;28;20032;-78
2022/11/24 01:31:03;;;;;;;16.17;6.07;;;6.30;99.90;;;;;;5071934;28;20033;-78
2022/11/24 01:33:30;;;;;;;14.55;3.95;;;6.30;99.90;;;;;;5071374;28;20044;-78
2022/11/24 01:35:57;;;;;;;14.65;4.78;;;6.20;99.90;;;;;;5069879;28;20044;-78
2022/11/24 01:38:24;;;;;;;10.15;3.83;;;6.20;99.90;;;;;;5087211;28;20041;-78
2022/11/24 01:41:00;;;;;;;7.55;3.53;;;6.10;99.90;;;;;;5080216;28;20041;-78
2022/11/24 01:43:26;;;;;;;11.25;3.53;;;6.10;99.90;;;;;;5070122;28;20044;-78
2022/11/24 01:45:53;;;;;;;13.20;4.20;;;6.20;99.90;;;;;;5071941;28;20035;-78
2022/11/24 01:48:28;;;;;;;18.75;4.63;;;6.20;99.90;;;;;;5089197;28;20044;-78
2022/11/24 01:51:07;;;;;;;21.38;4.95;;;6.40;99.90;;;;;;5090303;28;20047;-78
2022/11/24 01:53:34;;;;;;;13.43;4.57;;;6.70;99.90;;;;;;5090642;28;20032;-77
2022/11/24 01:56:00;;;;;;;26.48;5.40;;;6.80;99.90;;;;;;5072251;28;20458;-78
2022/11/24 01:58:30;;;;;;;26.20;6.43;;;7.00;99.90;;;;;;5078598;28;20028;-78
2022/11/24 02:00:56;;;;;;;19.55;5.65;;;7.10;99.90;;;;;;5079474;28;20066;-79
2022/11/24 02:03:25;;;;;;;13.15;4.15;;;7.20;99.90;;;;;;5091020;28;20473;-78
2022/11/24 02:06:10;;;;;;;15.75;4.18;;;7.40;99.90;;;;;;5088598;28;20575;-79
2022/11/24 02:09:10;;;;;;;13.07;3.60;;;7.50;99.90;;;;;;5092919;28;20028;-77
2022/11/24 02:11:38;;;;;;;15.10;4.32;;;7.60;99.90;;;;;;5083639;28;20043;-77
2022/11/24 02:14:09;;;;;;;22.15;4.55;;;7.70;99.90;;;;;;5084646;28;20374;-78
2022/11/24 02:16:36;;;;;;;17.08;3.50;;;7.80;99.90;;;;;;5092209;28;20043;-78
2022/11/24 02:19:17;;;;;;;14.60;3.47;;;7.90;99.90;;;;;;5094394;28;20028;-78
2022/11/24 02:21:43;;;;;;;;;;;7.80;99.90;;;;;;5094018;28;20032;-78
2022/11/24 02:24:37;;;;;;;16.35;4.55;;;7.80;99.90;;;;;;5094301;28;19912;-78
2022/11/24 02:27:03;;;;;;;9.02;2.65;;;7.90;99.90;;;;;;5084171;28;20513;-78
2022/11/24 02:29:29;;;;;;;13.77;3.42;;;7.80;99.90;;;;;;5093846;28;20028;-78
2022/11/24 02:32:01;;;;;;;14.88;2.97;;;7.90;99.90;;;;;;5091748;28;20040;-78
2022/11/24 02:34:27;;;;;;;11.50;2.38;;;7.80;99.90;;;;;;5073144;28;20052;-78
2022/11/24 02:36:53;;;;;;;13.15;4.03;;;7.70;99.90;;;;;;5072517;28;20036;-78
2022/11/24 02:39:19;;;;;;;8.27;2.38;;;7.70;99.90;;;;;;5074572;28;20039;-78
2022/11/24 02:41:50;;;;;;;9.45;2.95;;;7.60;99.90;;;;;;5073746;28;20035;-78
2022/11/24 02:44:19;;;;;;;12.60;2.50;;;7.60;99.90;;;;;;5092601;28;20044;-78
2022/11/24 02:46:45;;;;;;;10.85;2.55;;;7.60;99.90;;;;;;5091390;28;20374;-78
2022/11/24 02:49:11;;;;;;;13.02;3.15;;;7.50;99.90;;;;;;5093636;28;20044;-78
2022/11/24 02:51:37;;;;;;;8.95;2.70;;;7.40;99.90;;;;;;5092863;28;20024;-78
2022/11/24 02:54:03;;;;;;;16.85;4.55;;;7.40;99.90;;;;;;5093661;28;20028;-78
2022/11/24 02:56:29;;;;;;;10.77;3.28;;;7.30;99.90;;;;;;5090604;28;20032;-78
2022/11/24 02:58:55;;;;;;;8.23;2.70;;;7.30;99.90;;;;;;5074163;28;20021;-79
2022/11/24 03:01:22;;;;;;;11.52;2.88;;;7.30;99.90;;;;;;5092233;28;20032;-79
2022/11/24 03:03:48;;;;;;;9.93;2.10;;;7.30;99.90;;;;;;5093258;28;20039;-78
2022/11/24 03:06:14;;;;;;;11.45;3.22;;;7.30;99.90;;;;;;5092366;28;20028;-79
2022/11/24 03:08:40;;;;;;;12.00;2.33;;;7.30;99.90;;;;;;5074324;28;20040;-78
2022/11/24 03:11:06;;;;;;;6.03;2.60;;;7.30;99.90;;;;;;5093085;28;20031;-78
2022/11/24 03:13:32;;;;;;;10.52;2.75;;;7.40;99.90;;;;;;5093318;28;20043;-79
2022/11/24 03:15:58;;;;;;;17.75;3.70;;;7.40;99.90;;;;;;5091597;28;20032;-79
2022/11/24 03:18:24;;;;;;;11.13;2.40;;;7.40;99.90;;;;;;5092320;28;20032;-79
2022/11/24 03:20:50;;;;;;;16.95;3.55;;;7.40;99.90;;;;;;5086328;28;20059;-78
2022/11/24 03:23:17;;;;;;;8.90;2.40;;;7.40;99.90;;;;;;5086115;28;20043;-78
2022/11/24 03:25:43;;;;;;;10.65;4.25;;;7.40;99.90;;;;;;5083750;28;20119;-79
2022/11/24 03:28:09;;;;;;;9.27;2.10;;;7.40;99.90;;;;;;5077058;28;20040;-78
2022/11/24 03:30:35;;;;;;;8.88;2.28;;;7.40;99.90;;;;;;5096590;28;20030;-79
2022/11/24 03:33:03;;;;;;;8.68;1.95;;;7.50;99.90;;;;;;5093794;28;20037;-80
2022/11/24 03:35:29;;;;;;;9.50;2.28;;;7.50;99.90;;;;;;5072169;28;20037;-79
2022/11/24 03:37:56;;;;;;;10.77;3.05;;;7.60;99.90;;;;;;5080216;28;20024;-79
2022/11/24 03:40:22;;;;;;;6.85;1.92;;;7.70;99.90;;;;;;5079873;28;20036;-79
2022/11/24 03:42:48;;;;;;;8.80;2.10;;;7.70;99.90;;;;;;5092596;28;20039;-78
2022/11/24 03:45:14;;;;;;;14.52;2.33;;;7.70;99.90;;;;;;5085607;28;20044;-79
2022/11/24 03:47:40;;;;;;;10.25;2.55;;;7.70;99.90;;;;;;5073455;28;20474;-78
2022/11/24 03:50:07;;;;;;;8.35;2.03;;;7.70;99.90;;;;;;5088775;28;20040;-78
2022/11/24 03:52:33;;;;;;;11.55;2.58;;;7.60;99.90;;;;;;5074100;28;20040;-78
2022/11/24 03:54:59;;;;;;;12.90;2.53;;;7.60;99.90;;;;;;5071011;28;20354;-79
2022/11/24 03:57:25;;;;;;;10.35;2.40;;;7.70;99.90;;;;;;5072975;28;20450;-79
2022/11/24 03:59:51;;;;;;;10.05;2.50;;;7.70;99.90;;;;;;5085995;28;20052;-79
2022/11/24 04:02:18;;;;;;;8.73;2.30;;;7.60;99.90;;;;;;5072868;28;20135;-79
2022/11/24 04:04:49;;;;;;;13.68;3.33;;;7.70;99.90;;;;;;5071794;28;20044;-78
2022/11/24 04:07:16;;;;;;;12.02;2.08;;;7.70;99.90;;;;;;5072334;28;20036;-79
2022/11/24 04:09:42;;;;;;;8.63;2.40;;;7.80;99.90;;;;;;5072857;28;20032;-78
2022/11/24 04:14:53;;;;;;;10.32;2.78;;;7.80;99.90;;;;;;5089173;28;20032;-79
2022/11/24 04:17:19;;;;;;;13.02;3.17;;;7.80;99.90;;;;;;5092744;28;20051;-79
2022/11/24 04:19:45;;;;;;;11.82;2.78;;;7.90;99.90;;;;;;5091923;28;20059;-79
2022/11/24 04:22:11;;;;;;;21.08;4.40;;;7.90;99.90;;;;;;5092671;28;20035;-78
2022/11/24 04:24:37;;;;;;;11.95;2.67;;;7.90;99.90;;;;;;5081751;28;20037;-79
2022/11/24 04:27:03;;;;;;;11.15;3.05;;;7.90;99.90;;;;;;5071664;28;20043;-79
2022/11/24 04:29:30;;;;;;;10.15;2.90;;;7.90;99.90;;;;;;5071348;28;20048;-79
2022/11/24 04:31:56;;;;;;;15.63;5.85;;;7.90;99.90;;;;;;5071820;28;20035;-79
2022/11/24 04:34:22;;;;;;;10.68;2.80;;;7.90;99.90;;;;;;5072999;28;20029;-78
2022/11/24 04:36:48;;;;;;;14.02;3.50;;;7.90;99.90;;;;;;5070425;28;20058;-78
2022/11/24 04:39:14;;;;;;;14.20;2.50;;;7.90;99.90;;;;;;5072624;28;20024;-79
2022/11/24 04:41:40;;;;;;;7.78;2.42;;;7.90;99.90;;;;;;5071897;28;20029;-77
2022/11/24 04:44:06;;;;;;;9.10;1.98;;;7.90;99.90;;;;;;5079512;28;20032;-79
2022/11/24 04:46:33;;;;;;;7.18;2.92;;;7.90;99.90;;;;;;5090257;28;20366;-79
2022/11/24 04:48:59;;;;;;;8.70;2.50;;;8.00;99.90;;;;;;5088439;28;20027;-79
2022/11/24 04:51:25;;;;;;;9.38;2.13;;;8.00;99.90;;;;;;5092087;28;20028;-79
2022/11/24 04:53:51;;;;;;;8.02;2.90;;;8.00;99.90;;;;;;5089433;28;20051;-79
2022/11/24 04:56:17;;;;;;;11.23;3.33;;;8.00;99.90;;;;;;5076753;28;20032;-78
2022/11/24 04:58:46;;;;;;;14.80;2.97;;;8.00;99.90;;;;;;5070898;28;20039;-79
2022/11/24 05:01:12;;;;;;;11.73;2.35;;;8.00;99.90;;;;;;5071944;28;20119;-79
2022/11/24 05:03:39;;;;;;;11.38;2.50;;;8.00;99.90;;;;;;5067933;28;20044;-78
2022/11/24 05:06:07;;;;;;;12.15;2.20;;;8.10;99.90;;;;;;5086601;28;20381;-78
2022/11/24 05:08:34;;;;;;;12.95;3.67;;;8.10;99.90;;;;;;5089791;28;20165;-79
2022/11/24 05:11:05;;;;;;;12.70;2.75;;;8.10;99.90;;;;;;5072323;28;20032;-79
2022/11/24 05:13:31;;;;;;;13.18;2.55;;;8.10;99.90;;;;;;5091337;28;20036;-78
2022/11/24 05:15:58;;;;;;;12.38;2.53;;;8.10;99.90;;;;;;5089964;28;20812;-78
2022/11/24 05:18:25;;;;;;;15.73;4.32;;;8.00;99.90;;;;;;5092078;28;20055;-78
2022/11/24 05:20:51;;;;;;;17.15;3.17;;;8.10;99.90;;;;;;5089359;28;20029;-78
2022/11/24 05:23:17;;;;;;;15.90;3.30;;;8.00;99.90;;;;;;5091359;28;20044;-79
2022/11/24 05:25:43;;;;;;;8.48;3.08;;;8.10;99.90;;;;;;5089014;28;20032;-78
2022/11/24 05:28:09;;;;;;;16.15;3.38;;;8.10;99.90;;;;;;5091447;28;20032;-79
2022/11/24 05:30:39;;;;;;;12.43;2.63;;;8.00;99.90;;;;;;5090952;28;20392;-79
2022/11/24 05:33:10;;;;;;;13.87;2.40;;;8.00;99.90;;;;;;5090842;28;20036;-82
2022/11/24 05:35:36;;;;;;;12.77;2.72;;;8.10;99.90;;;;;;5089645;28;20032;-79
2022/11/24 05:38:03;;;;;;;13.50;2.83;;;8.10;99.90;;;;;;5090203;28;20055;-80
2022/11/24 05:40:30;;;;;;;16.23;2.75;;;8.10;99.90;;;;;;5089540;28;20043;-80
2022/11/24 05:42:56;;;;;;;14.07;3.33;;;8.10;99.90;;;;;;5084698;28;20032;-79
2022/11/24 05:45:22;;;;;;;10.05;2.85;;;8.10;99.90;;;;;;5082208;28;20035;-79
2022/11/24 05:47:50;;;;;;;10.38;3.22;;;8.10;99.90;;;;;;5093999;28;20040;-79
2022/11/24 05:50:19;;;;;;;10.98;2.60;;;8.10;99.90;;;;;;5094761;28;20032;-79
2022/11/24 05:52:46;;;;;;;10.60;2.78;;;8.10;99.90;;;;;;5087136;28;20048;-79
2022/11/24 05:55:14;;;;;;;12.50;2.58;;;8.00;99.90;;;;;;5073781;28;20051;-80
2022/11/24 05:57:40;;;;;;;15.65;2.85;;;8.10;99.90;;;;;;5074877;28;20032;-79
2022/11/24 06:00:09;;;;;;;11.20;3.35;;;8.10;99.90;;;;;;5073250;28;20492;-81
2022/11/24 06:02:41;;;;;;;11.52;2.15;;;8.10;99.90;;;;;;5074178;28;20040;-79
2022/11/24 06:05:07;;;;;;;12.85;2.78;;;8.10;99.90;;;;;;5073609;28;20059;-77
2022/11/24 06:07:33;;;;;;;11.45;3.17;;;8.10;99.90;;;;;;5074921;28;20106;-78
2022/11/24 06:09:59;;;;;;;13.63;3.15;;;8.10;99.90;;;;;;5075206;28;20030;-79
2022/11/24 06:12:25;;;;;;;11.65;2.80;;;8.10;99.90;;;;;;5081542;28;20028;-79
2022/11/24 06:14:51;;;;;;;16.98;3.35;;;8.20;99.90;;;;;;5092540;28;20028;-79
2022/11/24 06:17:18;;;;;;;14.05;2.70;;;8.20;99.90;;;;;;5094035;28;20028;-79
2022/11/24 06:19:46;;;;;;;13.23;2.95;;;8.20;99.90;;;;;;5092189;28;20043;-79
2022/11/24 06:22:12;;;;;;;12.70;2.55;;;8.10;99.90;;;;;;5094097;28;20032;-79
2022/11/24 06:24:38;;;;;;;8.88;2.28;;;8.10;99.90;;;;;;5092282;28;20047;-79
2022/11/24 06:27:05;;;;;;;21.65;4.22;;;8.10;99.90;;;;;;5093114;28;20381;-79
2022/11/24 06:29:31;;;;;;;17.00;4.93;;;8.10;99.90;;;;;;5093797;28;20043;-79
2022/11/24 06:31:57;;;;;;;9.57;2.63;;;8.10;99.90;;;;;;5092378;28;20032;-78
2022/11/24 06:34:23;;;;;;;11.60;3.53;;;8.10;99.90;;;;;;5088097;28;20037;-78
2022/11/24 06:36:50;;;;;;;15.00;3.88;;;8.00;99.90;;;;;;5072852;28;20021;-79
2022/11/24 06:39:16;;;;;;;15.43;3.08;;;8.00;99.90;;;;;;5080988;28;20028;-79
2022/11/24 06:41:42;;;;;;;18.05;3.35;;;8.00;99.90;;;;;;5093190;28;20046;-79
2022/11/24 06:44:08;;;;;;;14.05;3.33;;;8.00;99.90;;;;;;5078142;28;20457;-80
2022/11/24 06:46:34;;;;;;;16.90;3.70;;;7.90;99.90;;;;;;5072413;28;20040;-79
2022/11/24 06:49:01;;;;;;;16.88;2.95;;;8.00;99.90;;;;;;5072807;28;20035;-79
2022/11/24 06:51:27;;;;;;;19.67;3.28;;;7.90;99.90;;;;;;5074559;28;20036;-79
2022/11/24 06:53:53;;;;;;;12.15;3.05;;;7.90;99.90;;;;;;5073200;28;20028;-79
2022/11/24 06:56:20;;;;;;;14.45;3.85;;;7.90;99.90;;;;;;5071446;28;20028;-79
2022/11/24 06:58:49;;;;;;;19.48;3.95;;;7.90;99.90;;;;;;5072758;28;20462;-79
2022/11/24 07:01:23;;;;;;;17.58;5.13;;;7.90;99.90;;;;;;5074160;28;20060;-80
2022/11/24 07:03:50;;;;;;;12.70;4.07;;;7.90;99.90;;;;;;5076351;28;20205;-79
2022/11/24 07:06:17;;;;;;;13.60;3.53;;;7.90;99.90;;;;;;5086400;28;20462;-78
2022/11/24 07:08:44;;;;;;;18.73;4.82;;;7.90;99.90;;;;;;5082491;28;20029;-78
2022/11/24 07:11:14;;;;;;;15.73;4.03;;;7.90;99.90;;;;;;5092976;28;20062;-79
2022/11/24 07:13:42;;;;;;;16.63;3.75;;;7.90;99.90;;;;;;5075077;28;20036;-78
2022/11/24 07:16:20;;;;;;;15.40;3.63;;;7.90;99.90;;;;;;5072412;28;20036;-78
2022/11/24 07:18:48;;;;;;;18.42;4.07;;;7.90;99.90;;;;;;5073918;28;20041;-77
2022/11/24 07:21:15;;;;;;;17.50;4.20;;;8.00;99.90;;;;;;5074026;28;20362;-78
2022/11/24 07:23:41;;;;;;;15.80;4.15;;;8.00;99.90;;;;;;5074354;28;20029;-79
2022/11/24 07:26:08;;;;;;;15.90;4.00;;;8.00;99.90;;;;;;5072581;28;20036;-79
2022/11/24 07:28:35;;;;;;;15.32;4.15;;;8.00;99.90;;;;;;5073821;28;20362;-79
2022/11/24 07:31:06;;;;;;;11.90;3.10;;;8.00;99.90;;;;;;5073234;28;20037;-79
2022/11/24 07:33:33;;;;;;;16.20;2.80;;;8.00;99.90;;;;;;5087046;28;20048;-78
2022/11/24 07:35:59;;;;;;;15.13;3.10;;;8.00;99.90;;;;;;5083445;28;20037;-78
2022/11/24 07:38:25;;;;;;;12.60;3.00;;;8.00;99.90;;;;;;5079607;28;20032;-79
2022/11/24 07:40:51;;;;;;;14.05;3.13;;;8.10;99.90;;;;;;5080333;28;20393;-78
2022/11/24 07:43:18;;;;;;;12.80;2.63;;;8.10;99.90;;;;;;5116082;28;20040;-78
2022/11/24 07:45:50;;;;;;;12.70;2.50;;;8.10;99.90;;;;;;5090396;28;20037;-79
2022/11/24 07:48:16;;;;;;;11.63;2.35;;;8.10;99.90;;;;;;5074826;28;20149;-79
2022/11/24 07:50:43;;;;;;;15.82;3.20;;;8.10;99.90;;;;;;5088906;28;20052;-79
2022/11/24 07:53:09;;;;;;;10.95;2.60;;;8.10;99.90;;;;;;5089337;28;20055;-79
2022/11/24 07:55:35;;;;;;;10.98;2.95;;;8.20;99.90;;;;;;5085040;28;20036;-80
2022/11/24 07:58:01;;;;;;;12.93;3.25;;;8.20;99.90;;;;;;5092074;28;20024;-80
2022/11/24 08:00:28;;;;;;;10.88;2.90;;;8.20;99.90;;;;;;5085679;28;20048;-80
2022/11/24 08:02:54;;;;;;;11.63;2.58;;;8.20;99.90;;;;;;5093237;28;20129;-80
2022/11/24 08:05:20;;;;;;;9.82;2.80;;;8.20;99.90;;;;;;5090290;28;20039;-80
2022/11/24 08:07:46;;;;;;;13.55;3.83;;;8.20;99.90;;;;;;5092053;28;20039;-81
2022/11/24 08:10:12;;;;;;;11.88;2.75;;;8.10;99.90;;;;;;5093006;28;20039;-81
2022/11/24 08:12:38;;;;;;;8.30;2.67;;;8.10;99.90;;;;;;5090932;28;20043;-81
2022/11/24 08:15:06;;;;;;;13.07;3.35;;;8.10;99.90;;;;;;5090643;28;20355;-80
2022/11/24 08:17:32;;;;;;;10.50;2.20;;;8.00;99.90;;;;;;5092194;28;20028;-80
2022/11/24 08:19:58;;;;;;;17.27;8.02;;;8.00;99.90;;;;;;5090318;28;20032;-80
2022/11/24 08:22:25;;;;;;;28.92;10.10;;;8.00;99.90;;;;;;5091858;28;20039;-80
2022/11/24 08:24:51;;;;;;;193.00;79.88;;;8.00;99.90;;;;;;5092378;28;20027;-81
2022/11/24 08:27:18;;;;;;;115.88;41.17;;;8.10;99.90;;;;;;5091919;28;20032;-81
2022/11/24 08:29:44;;;;;;;253.43;100.70;;;8.10;99.90;;;;;;5090848;28;20032;-81
2022/11/24 08:32:11;;;;;;;147.30;60.65;;;8.20;99.90;;;;;;5091222;28;20381;-80
2022/11/24 08:34:38;;;;;;;128.15;49.83;;;8.30;99.90;;;;;;5090558;28;20044;-80
2022/11/24 08:37:05;;;;;;;118.35;48.42;;;8.30;99.90;;;;;;5089905;28;20496;-80
2022/11/24 08:39:32;;;;;;;41.20;15.18;;;8.40;99.90;;;;;;5091780;28;20032;-80
2022/11/24 08:41:58;;;;;;;35.88;15.18;;;8.50;99.90;;;;;;5091262;28;20409;-80
2022/11/24 08:44:27;;;;;;;39.42;16.13;;;8.60;99.90;;;;;;5088102;28;20039;-81
2022/11/24 08:46:53;;;;;;;43.42;17.27;;;8.70;99.40;;;;;;5072857;28;20044;-81
2022/11/24 08:49:21;;;;;;;19.90;5.40;;;8.80;99.10;;;;;;5072465;28;20036;-81
2022/11/24 08:51:48;;;;;;;18.90;6.70;;;8.80;97.80;;;;;;5071949;28;20024;-81
2022/11/24 08:54:17;;;;;;;16.75;5.45;;;8.80;97.10;;;;;;5070782;28;20043;-80
2022/11/24 08:56:43;;;;;;;34.75;13.27;;;8.90;95.00;;;;;;5086194;28;20036;-81
2022/11/24 08:59:13;;;;;;;11.60;4.60;;;8.90;92.80;;;;;;5069786;28;20048;-81
2022/11/24 09:01:40;;;;;;;19.10;5.18;;;8.90;91.50;;;;;;5089964;28;20039;-81
2022/11/24 09:04:07;;;;;;;17.48;5.45;;;9.00;90.40;;;;;;5090329;28;20036;-81
2022/11/24 09:06:33;;;;;;;13.88;4.07;;;9.00;80.30;;;;;;5091726;28;20473;-82
2022/11/24 09:08:59;;;;;;;16.67;5.90;;;9.00;78.10;;;;;;5090637;28;20099;-81
2022/11/24 09:11:27;;;;;;;16.35;5.82;;;9.20;74.10;;;;;;5090100;28;20036;-81
2022/11/24 09:13:54;;;;;;;23.88;8.23;;;9.30;64.70;;;;;;5090594;28;20040;-81
2022/11/24 09:16:24;;;;;;;14.70;3.72;;;9.40;58.80;;;;;;5089712;28;20039;-82
2022/11/24 09:19:03;;;;;;;9.15;3.33;;;9.50;47.90;;;;;;5093694;28;20051;-81
2022/11/24 09:21:32;;;;;;;9.23;2.28;;;9.70;37.50;;;;;;5094160;28;20036;-81
2022/11/24 09:23:58;;;;;;;9.40;2.58;;;10.00;28.60;;;;;;5092974;28;20401;-82
2022/11/24 09:26:28;;;;;;;9.70;2.38;;;10.10;18.20;;;;;;5093925;28;20032;-82
2022/11/24 09:28:56;;;;;;;10.27;2.67;;;10.30;19.40;;;;;;5094280;28;20040;-80
2022/11/24 09:31:25;;;;;;;12.48;3.00;;;10.20;9.10;;;;;;5095023;28;20470;-82
2022/11/24 09:33:52;;;;;;;9.65;2.50;;;10.20;20.10;;;;;;5093546;28;20047;-81
2022/11/24 09:36:19;;;;;;;9.43;2.13;;;10.20;6.30;;;;;;5087774;28;20039;-82
2022/11/24 09:38:46;;;;;;;12.18;2.88;;;10.10;8.10;;;;;;5079765;28;20044;-82
2022/11/24 09:41:34;;;;;;;11.02;2.30;;;10.00;5.20;;;;;;5093360;28;20402;-81
2022/11/24 09:44:00;;;;;;;11.32;3.10;;;9.90;10.80;;;;;;5093901;28;20051;-82
2022/11/24 09:46:49;;;;;;;18.02;5.13;;;9.90;17.10;;;;;;5092245;28;20044;-82
2022/11/24 09:49:23;;;;;;;11.35;3.15;;;10.00;17.10;;;;;;5092833;28;20055;-82
2022/11/24 09:51:53;;;;;;;8.98;2.80;;;10.00;9.70;;;;;;5093269;28;20040;-82
2022/11/24 09:54:25;;;;;;;11.30;2.63;;;10.10;9.90;;;;;;5092923;28;20043;-82
2022/11/24 09:56:51;;;;;;;12.13;2.10;;;10.20;10.00;;;;;;5098131;28;20032;-83
2022/11/24 09:59:21;;;;;;;36.65;15.50;;;10.30;1.10;;;;;;5094158;28;20052;-82
2022/11/24 10:01:49;;;;;;;12.18;2.75;;;10.30;3.80;;;;;;5077058;28;20024;-83
2022/11/24 10:04:27;;;;;;;10.52;4.82;;;10.40;1.00;;;;;;5083486;28;20036;-81
2022/11/24 10:07:26;;;;;;;12.45;4.28;;;10.30;1.00;;;;;;5092472;28;20056;-81
2022/11/24 10:10:17;;;;;;;14.25;6.28;;;10.30;1.50;;;;;;5094509;28;20154;-81
2022/11/24 10:12:49;;;;;;;6.82;2.80;;;10.30;1.00;;;;;;5094693;28;20480;-82
2022/11/24 10:15:50;;;;;;;9.85;3.22;;;10.30;1.00;;;;;;5071451;28;20040;-81
2022/11/24 10:18:22;;;;;;;;;;;10.30;1.00;;;;;;5067172;28;20036;-82
2022/11/24 10:21:32;;;;;;;7.95;2.83;;;10.40;1.00;;;;;;5090227;28;19908;-82
2022/11/24 10:24:17;;;;;;;6.60;2.97;;;10.40;1.00;;;;;;5088531;28;20047;-82
2022/11/24 10:27:00;;;;;;;8.95;2.70;;;10.50;1.00;;;;;;5070868;28;20044;-82
2022/11/24 10:29:36;;;;;;;8.52;2.63;;;10.60;1.00;;;;;;5093754;28;20040;-82
2022/11/24 10:32:06;;;;;;;9.93;1.60;;;10.60;1.00;;;;;;5092412;28;20591;-82
2022/11/24 10:34:37;;;;;;;10.35;2.10;;;10.50;1.00;;;;;;5093569;28;20059;-82
2022/11/24 10:37:09;;;;;;;;;;;10.40;1.00;;;;;;5083278;28;20028;-82
2022/11/24 10:39:50;;;;;;;6.45;2.03;;;10.40;1.00;;;;;;5096766;28;19908;-82
2022/11/24 10:42:27;;;;;;;7.03;1.98;;;10.50;1.00;;;;;;5096045;28;20038;-82
2022/11/24 10:45:00;;;;;;;6.03;2.05;;;10.70;1.00;;;;;;5095533;28;20036;-81
2022/11/24 10:47:27;;;;;;;8.55;2.00;;;10.70;1.00;;;;;;5081963;28;20059;-82
2022/11/24 10:50:13;;;;;;;8.40;2.30;;;10.70;1.00;;;;;;5083129;28;20140;-83
2022/11/24 10:52:45;;;;;;;6.80;1.92;;;10.80;1.00;;;;;;5076375;28;20032;-84
2022/11/24 10:55:11;;;;;;;12.02;3.55;;;10.90;1.00;;;;;;5073146;28;20474;-81
2022/11/24 10:57:39;;;;;;;8.38;2.50;;;10.90;1.00;;;;;;5074907;28;20043;-82
2022/11/24 11:00:25;;;;;;;5.20;1.77;;;11.00;1.00;;;;;;5072383;28;20064;-79
2022/11/24 11:03:18;;;;;;;7.80;3.15;;;11.00;1.00;;;;;;5072995;28;20048;-80
2022/11/24 11:06:03;;;;;;;14.05;4.63;;;11.00;1.00;;;;;;5073436;28;20039;-79
2022/11/24 11:08:31;;;;;;;8.82;2.30;;;11.20;1.00;;;;;;5090635;28;20040;-80
2022/11/24 11:11:15;;;;;;;6.43;2.42;;;11.20;1.00;;;;;;5089971;28;20504;-80
2022/11/24 11:13:52;;;;;;;8.93;2.40;;;11.20;1.00;;;;;;5089984;28;20029;-81
2022/11/24 11:16:24;;;;;;;3.47;1.35;;;11.10;1.00;;;;;;5073195;28;20028;-81
2022/11/24 11:18:51;;;;;;;5.43;1.52;;;11.30;1.00;;;;;;5080842;28;20477;-81
2022/11/24 11:21:47;;;;;;;9.05;1.67;;;11.20;1.00;;;;;;5093260;28;20035;-81
2022/11/24 11:24:15;;;;;;;10.00;1.55;;;11.20;1.00;;;;;;5069363;28;20099;-79
2022/11/24 11:26:42;;;;;;;10.40;2.20;;;11.10;1.00;;;;;;5081125;28;20504;-80
2022/11/24 11:29:11;;;;;;;5.00;1.60;;;11.20;1.00;;;;;;5073235;28;20037;-82
2022/11/24 11:31:38;;;;;;;13.00;5.35;;;11.40;1.00;;;;;;5088807;28;20047;-81
2022/11/24 11:34:14;;;;;;;12.50;3.35;;;11.40;1.00;;;;;;5080679;28;20135;-79
2022/11/24 11:36:40;;;;;;;14.65;2.67;;;11.60;1.00;;;;;;5091687;28;20457;-80
2022/11/24 11:39:29;;;;;;;11.05;4.07;;;11.60;1.00;;;;;;5093364;28;20032;-80
2022/11/24 11:42:32;;;;;;;7.60;1.60;;;11.40;1.00;;;;;;5092731;28;20385;-82
2022/11/24 11:45:10;;;;;;;10.68;1.25;;;11.20;1.00;;;;;;5089357;28;20055;-80
2022/11/24 11:47:54;;;;;;;19.48;2.85;;;11.00;1.00;;;;;;5085856;28;20036;-81
2022/11/24 11:50:48;;;;;;;9.85;2.00;;;10.90;1.00;;;;;;5060164;28;20044;-81
2022/11/24 11:53:53;;;;;;;4.35;1.13;;;10.90;1.00;;;;;;5070447;28;20040;-82
2022/11/24 11:56:43;;;;;;;9.70;4.13;;;11.00;1.00;;;;;;5054985;28;20063;-80
2022/11/24 11:59:24;;;;;;;15.95;3.05;;;11.00;1.00;;;;;;5045330;28;20454;-80
2022/11/24 12:02:11;;;;;;;6.50;1.73;;;11.20;1.00;;;;;;5055603;28;20041;-81
2022/11/24 12:04:57;;;;;;;5.45;1.25;;;11.40;1.00;;;;;;5071384;28;20037;-81
2022/11/24 12:07:40;;;;;;;8.18;1.17;;;11.40;1.00;;;;;;5070731;28;20052;-81
2022/11/24 12:10:15;;;;;;;6.47;1.55;;;11.50;1.00;;;;;;5107248;28;20036;-81
2022/11/24 12:13:02;;;;;;;7.32;1.95;;;11.60;1.00;;;;;;5091194;28;20035;-81
2022/11/24 12:15:37;;;;;;;13.43;3.10;;;11.50;1.00;;;;;;5089128;28;20051;-82
2022/11/24 12:18:26;;;;;;;8.15;2.17;;;11.50;1.00;;;;;;5090832;28;20028;-82
2022/11/24 12:21:20;;;;;;;7.32;1.67;;;11.50;1.00;;;;;;5067947;28;20029;-81
2022/11/24 12:24:21;;;;;;;17.05;3.47;;;11.40;1.00;;;;;;5078686;28;20028;-81
2022/11/24 12:26:56;;;;;;;10.77;2.83;;;11.50;1.00;;;;;;5082640;28;20049;-81
2022/11/24 12:29:51;;;;;;;5.50;1.55;;;11.60;1.00;;;;;;5071721;28;20032;-82
2022/11/24 12:32:29;;;;;;;6.50;1.92;;;11.60;1.00;;;;;;5088283;28;20511;-82
2022/11/24 12:35:27;;;;;;;9.05;2.55;;;11.60;1.00;;;;;;5091001;28;20036;-81
2022/11/24 12:38:18;;;;;;;6.25;1.38;;;11.60;1.00;;;;;;5090247;28;20050;-81
2022/11/24 12:41:02;;;;;;;8.30;3.03;;;11.60;1.00;;;;;;5064453;28;20385;-81
2022/11/24 12:43:40;;;;;;;6.57;2.03;;;11.50;1.00;;;;;;5067881;28;20032;-82
2022/11/24 12:46:33;;;;;;;6.45;1.58;;;11.50;1.00;;;;;;5069132;28;20390;-81
2022/11/24 12:49:02;;;;;;;7.82;4.93;;;11.40;1.00;;;;;;5079702;28;20044;-80
2022/11/24 12:51:34;;;;;;;9.73;4.40;;;11.40;1.00;;;;;;5077225;28;20052;-82
2022/11/24 12:54:03;;;;;;;11.00;1.90;;;11.30;1.00;;;;;;5064719;28;20036;-80
2022/11/24 12:56:39;;;;;;;7.13;3.63;;;11.20;1.00;;;;;;5091517;28;20032;-81
2022/11/24 12:59:35;;;;;;;12.45;3.95;;;11.20;1.00;;;;;;5090412;28;20039;-82
2022/11/24 13:02:21;;;;;;;7.55;2.38;;;11.20;1.00;;;;;;5089436;28;20040;-80
2022/11/24 13:05:03;;;;;;;14.38;2.30;;;11.20;1.00;;;;;;5073045;28;20048;-81
2022/11/24 13:07:47;;;;;;;9.05;4.65;;;11.30;1.00;;;;;;5070507;28;20044;-82
2022/11/24 13:10:27;;;;;;;11.43;3.90;;;11.30;1.00;;;;;;5090599;28;20036;-83
2022/11/24 13:13:10;;;;;;;9.90;3.08;;;11.50;1.00;;;;;;5092818;28;20058;-83